createdAt,value
2019-02-28T00:00:56.015Z,0.90
2019-02-28T00:03:27.384Z,0.80
2019-02-28T00:05:58.618Z,0.70
2019-02-28T00:08:29.823Z,0.70
2019-02-28T00:11:02.113Z,0.60
2019-02-28T00:13:33.871Z,0.50
2019-02-28T00:16:05.162Z,0.50
2019-02-28T00:18:36.631Z,0.50
2019-02-28T00:21:07.929Z,0.50
2019-02-28T00:23:39.098Z,0.40
2019-02-28T00:26:11.658Z,0.40
2019-02-28T00:28:44.186Z,0.40
2019-02-28T00:31:15.499Z,0.40
2019-02-28T00:33:46.793Z,0.40
2019-02-28T00:36:19.153Z,0.40
2019-02-28T00:38:50.984Z,0.40
2019-02-28T00:41:22.150Z,0.40
2019-02-28T00:43:53.389Z,0.30
2019-02-28T00:46:24.568Z,0.30
2019-02-28T00:48:55.768Z,0.30
2019-02-28T00:51:29.684Z,0.20
2019-02-28T00:54:00.865Z,0.20
2019-02-28T00:56:32.421Z,0.10
2019-02-28T00:59:03.638Z,0.00
2019-02-28T01:01:34.884Z,0.00
2019-02-28T01:04:09.026Z,0.00
2019-02-28T01:06:41.808Z,0.00
2019-02-28T01:09:13.086Z,-0.10
2019-02-28T01:11:45.550Z,-0.20
2019-02-28T01:14:17.098Z,-0.30
2019-02-28T01:16:50.150Z,-0.30
2019-02-28T01:19:21.094Z,-0.30
2019-02-28T01:21:55.416Z,-0.40
2019-02-28T01:24:25.027Z,-0.40
2019-02-28T01:26:56.219Z,-0.40
2019-02-28T01:29:27.333Z,-0.40
2019-02-28T01:31:58.569Z,-0.50
2019-02-28T01:34:32.192Z,-0.50
2019-02-28T01:37:02.522Z,-0.50
2019-02-28T01:39:33.729Z,-0.60
2019-02-28T01:42:04.974Z,-0.60
2019-02-28T01:44:36.515Z,-0.60
2019-02-28T01:47:07.733Z,-0.70
2019-02-28T01:49:38.931Z,-0.70
2019-02-28T01:52:10.807Z,-0.80
2019-02-28T01:54:42.215Z,-0.80
2019-02-28T01:57:13.410Z,-0.80
2019-02-28T01:59:45.662Z,-0.80
2019-02-28T02:02:16.788Z,-0.80
2019-02-28T02:04:48.289Z,-0.80
2019-02-28T02:07:20.960Z,-0.90
2019-02-28T02:09:52.522Z,-0.90
2019-02-28T02:12:23.700Z,-0.90
2019-02-28T02:14:54.897Z,-0.90
2019-02-28T02:17:26.092Z,-1.00
2019-02-28T02:19:57.363Z,-1.00
2019-02-28T02:22:28.591Z,-1.00
2019-02-28T02:25:03.052Z,-1.10
2019-02-28T02:27:32.544Z,-1.10
2019-02-28T02:30:03.720Z,-1.10
2019-02-28T02:32:38.667Z,-1.10
2019-02-28T02:35:08.490Z,-1.00
2019-02-28T02:37:39.764Z,-1.00
2019-02-28T02:40:11.477Z,-1.00
2019-02-28T02:42:47.535Z,-1.00
2019-02-28T02:45:16.521Z,-1.00
2019-02-28T02:47:47.715Z,-1.00
2019-02-28T02:50:18.904Z,-1.00
2019-02-28T02:52:50.077Z,-1.00
2019-02-28T02:55:27.727Z,-1.10
2019-02-28T02:57:54.216Z,-1.10
2019-02-28T03:00:25.384Z,-1.10
2019-02-28T03:02:56.593Z,-1.00
2019-02-28T03:05:34.987Z,-1.00
2019-02-28T03:08:01.126Z,-1.10
2019-02-28T03:10:32.424Z,-1.10
2019-02-28T03:13:04.891Z,-1.10
2019-02-28T03:15:36.411Z,-1.20
2019-02-28T03:18:07.559Z,-1.30
2019-02-28T03:20:41.332Z,-1.30
2019-02-28T03:23:11.544Z,-1.40
2019-02-28T03:25:42.684Z,-1.40
2019-02-28T03:28:14.097Z,-1.30
2019-02-28T03:30:45.454Z,-1.40
2019-02-28T03:33:27.390Z,-1.40
2019-02-28T03:35:49.437Z,-1.50
2019-02-28T03:38:20.585Z,-1.50
2019-02-28T03:40:51.803Z,-1.60
2019-02-28T03:43:23.201Z,-1.60
2019-02-28T03:45:54.357Z,-1.70
2019-02-28T03:48:25.501Z,-1.70
2019-02-28T03:50:56.795Z,-1.80
2019-02-28T03:53:27.994Z,-1.80
2019-02-28T03:55:59.262Z,-1.80
2019-02-28T03:58:30.556Z,-1.80
2019-02-28T04:01:08.965Z,-1.80
2019-02-28T04:03:34.789Z,-1.90
2019-02-28T04:06:06.138Z,-1.90
2019-02-28T04:08:37.322Z,-1.80
2019-02-28T04:11:08.501Z,-1.60
2019-02-28T04:13:39.666Z,-1.40
2019-02-28T04:16:10.931Z,-0.90
2019-02-28T04:18:45.890Z,-0.70
2019-02-28T04:21:14.848Z,-0.60
2019-02-28T04:23:46.033Z,-0.40
2019-02-28T04:26:17.194Z,-0.20
2019-02-28T04:28:53.522Z,0.10
2019-02-28T04:31:21.225Z,0.60
2019-02-28T04:33:53.498Z,1.00
2019-02-28T04:36:24.583Z,0.90
2019-02-28T04:38:55.709Z,0.80
2019-02-28T04:41:26.899Z,0.60
2019-02-28T04:43:58.135Z,0.40
2019-02-28T04:46:31.794Z,0.30
2019-02-28T04:49:02.178Z,0.30
2019-02-28T04:51:33.315Z,0.30
2019-02-28T04:54:04.437Z,0.40
2019-02-28T04:56:35.631Z,0.40
2019-02-28T04:59:06.755Z,0.50
2019-02-28T05:01:37.982Z,0.50
2019-02-28T05:04:09.187Z,0.70
2019-02-28T05:06:40.418Z,1.00
2019-02-28T05:09:14.343Z,1.00
2019-02-28T05:11:44.442Z,0.90
2019-02-28T05:14:15.620Z,0.70
2019-02-28T05:16:47.472Z,0.50
2019-02-28T05:19:19.552Z,0.30
2019-02-28T05:21:53.498Z,0.20
2019-02-28T05:24:23.400Z,0.30
2019-02-28T05:26:57.340Z,0.40
2019-02-28T05:29:27.404Z,0.50
2019-02-28T05:32:01.076Z,0.60
2019-02-28T05:34:31.254Z,0.50
2019-02-28T05:37:02.443Z,0.40
2019-02-28T05:39:33.675Z,0.30
2019-02-28T05:42:04.814Z,0.20
2019-02-28T05:44:37.382Z,0.10
2019-02-28T05:47:10.423Z,0.00
2019-02-28T05:49:42.068Z,0.00
2019-02-28T05:52:13.214Z,0.00
2019-02-28T05:54:47.221Z,0.00
2019-02-28T05:57:18.203Z,0.10
2019-02-28T05:59:49.431Z,0.20
2019-02-28T06:02:22.413Z,0.30
2019-02-28T06:04:53.400Z,0.40
2019-02-28T06:07:25.984Z,0.50
2019-02-28T06:09:57.303Z,0.60
2019-02-28T06:12:28.376Z,0.60
2019-02-28T06:15:03.112Z,0.80
2019-02-28T06:17:33.391Z,1.00
2019-02-28T06:20:05.436Z,1.30
2019-02-28T06:22:36.610Z,1.70
2019-02-28T06:25:08.055Z,2.00
2019-02-28T06:27:41.947Z,2.30
2019-02-28T06:30:12.769Z,2.60
2019-02-28T06:32:44.898Z,2.80
2019-02-28T06:35:20.263Z,3.00
2019-02-28T06:37:49.642Z,3.20
2019-02-28T06:40:20.898Z,3.40
2019-02-28T06:42:52.097Z,3.70
2019-02-28T06:45:23.204Z,3.90
2019-02-28T06:47:54.357Z,4.10
2019-02-28T06:50:25.540Z,4.40
2019-02-28T06:52:59.344Z,4.70
2019-02-28T06:55:29.552Z,5.00
2019-02-28T06:58:00.754Z,5.20
2019-02-28T07:00:31.936Z,5.50
2019-02-28T07:03:04.385Z,5.80
2019-02-28T07:05:36.581Z,6.00
2019-02-28T07:08:07.954Z,6.20
2019-02-28T07:10:41.417Z,6.40
2019-02-28T07:13:11.969Z,6.40
2019-02-28T07:15:43.029Z,6.60
2019-02-28T07:18:14.274Z,6.70
2019-02-28T07:20:47.156Z,6.80
2019-02-28T07:23:18.152Z,6.90
2019-02-28T07:25:49.291Z,7.10
2019-02-28T07:28:20.458Z,7.20
2019-02-28T07:30:51.575Z,7.30
2019-02-28T07:33:22.739Z,7.50
2019-02-28T07:35:54.019Z,7.60
2019-02-28T07:38:25.580Z,7.80
2019-02-28T07:40:58.038Z,8.00
2019-02-28T07:43:29.245Z,8.20
2019-02-28T07:46:00.389Z,8.30
2019-02-28T07:48:31.600Z,8.50
2019-02-28T07:51:02.768Z,8.60
2019-02-28T07:53:33.888Z,8.80
2019-02-28T07:56:07.157Z,8.90
2019-02-28T07:58:37.892Z,9.10
2019-02-28T08:01:09.025Z,9.20
2019-02-28T08:03:43.405Z,9.40
2019-02-28T08:06:13.039Z,9.50
2019-02-28T08:08:45.272Z,9.60
2019-02-28T08:11:19.880Z,9.70
2019-02-28T08:13:49.406Z,9.90
2019-02-28T08:16:20.589Z,10.00
2019-02-28T08:18:52.454Z,10.10
2019-02-28T08:21:23.963Z,10.30
2019-02-28T08:23:55.216Z,10.50
2019-02-28T08:26:26.426Z,10.60
2019-02-28T08:28:57.666Z,10.70
2019-02-28T08:31:31.982Z,10.80
2019-02-28T08:34:01.814Z,11.00
2019-02-28T08:36:33.026Z,11.10
2019-02-28T08:39:08.824Z,11.10
2019-02-28T08:41:39.525Z,11.20
2019-02-28T08:44:10.738Z,11.30
2019-02-28T08:46:43.526Z,11.50
2019-02-28T08:49:14.726Z,11.60
2019-02-28T08:51:45.953Z,11.70
2019-02-28T08:54:17.140Z,11.80
2019-02-28T08:56:49.757Z,11.90
2019-02-28T08:59:22.706Z,12.00
2019-02-28T09:01:54.255Z,12.10
2019-02-28T09:04:25.486Z,12.30
2019-02-28T09:06:56.719Z,12.30
2019-02-28T09:09:27.931Z,12.40
2019-02-28T09:11:59.139Z,12.60
2019-02-28T09:14:30.403Z,12.70
2019-02-28T09:17:01.707Z,12.70
2019-02-28T09:19:36.040Z,12.80
2019-02-28T09:22:05.707Z,12.90
2019-02-28T09:24:36.937Z,13.00
2019-02-28T09:27:08.217Z,13.10
2019-02-28T09:29:39.652Z,13.20
2019-02-28T09:32:13.444Z,13.30
2019-02-28T09:34:43.840Z,13.30
2019-02-28T09:37:15.082Z,13.50
2019-02-28T09:39:46.307Z,13.50
2019-02-28T09:42:17.507Z,13.60
2019-02-28T09:44:49.716Z,13.50
2019-02-28T09:47:23.365Z,13.50
2019-02-28T09:49:53.644Z,13.60
2019-02-28T09:52:24.875Z,13.70
2019-02-28T09:54:56.271Z,13.70
2019-02-28T09:57:30.234Z,13.80
2019-02-28T10:00:01.566Z,13.80
2019-02-28T10:02:34.180Z,13.80
2019-02-28T10:05:07.571Z,14.00
2019-02-28T10:07:38.834Z,14.20
2019-02-28T10:10:13.933Z,14.30
2019-02-28T10:12:45.233Z,14.30
2019-02-28T10:15:20.376Z,14.30
2019-02-28T10:17:51.599Z,14.30
2019-02-28T10:20:27.194Z,14.20
2019-02-28T10:22:57.636Z,14.20
2019-02-28T10:25:29.873Z,14.20
2019-02-28T10:28:02.645Z,14.30
2019-02-28T10:30:34.152Z,14.40
2019-02-28T10:33:05.442Z,14.60
2019-02-28T10:35:37.607Z,14.60
2019-02-28T10:38:09.031Z,14.70
2019-02-28T10:40:40.239Z,14.90
2019-02-28T10:43:12.212Z,15.10
2019-02-28T10:45:46.001Z,15.20
2019-02-28T10:48:17.416Z,15.20
2019-02-28T10:50:48.742Z,15.30
2019-02-28T10:53:19.939Z,15.50
2019-02-28T10:55:51.280Z,15.60
2019-02-28T10:58:22.471Z,15.60
2019-02-28T11:00:53.680Z,15.60
2019-02-28T11:03:24.831Z,15.70
2019-02-28T11:05:56.359Z,15.60
2019-02-28T11:08:27.574Z,15.50
2019-02-28T11:10:59.420Z,15.50
2019-02-28T11:13:32.188Z,15.50
2019-02-28T11:16:03.697Z,15.60
2019-02-28T11:18:36.440Z,15.80
2019-02-28T11:21:08.049Z,16.00
2019-02-28T11:23:39.669Z,15.90
2019-02-28T11:26:10.964Z,16.00
2019-02-28T11:28:42.197Z,16.10
2019-02-28T11:31:16.286Z,16.20
2019-02-28T11:33:46.519Z,16.30
2019-02-28T11:36:17.685Z,16.30
2019-02-28T11:38:48.905Z,16.40
2019-02-28T11:41:20.197Z,16.40
2019-02-28T11:43:51.521Z,16.30
2019-02-28T11:46:22.742Z,16.00
2019-02-28T11:48:55.093Z,15.90
2019-02-28T11:51:27.331Z,16.00
2019-02-28T11:53:58.598Z,16.00
2019-02-28T11:56:29.787Z,15.80
2019-02-28T11:59:01.097Z,15.90
2019-02-28T12:01:32.516Z,16.00
2019-02-28T12:04:03.696Z,16.00
2019-02-28T12:06:35.464Z,16.10
2019-02-28T12:09:08.161Z,16.20
2019-02-28T12:11:39.549Z,16.30
2019-02-28T12:14:10.896Z,16.40
2019-02-28T12:16:42.127Z,16.40
2019-02-28T12:19:15.882Z,16.50
2019-02-28T12:21:46.205Z,16.50
2019-02-28T12:24:17.425Z,16.60
2019-02-28T12:26:49.416Z,16.50
2019-02-28T12:29:21.533Z,16.60
2019-02-28T12:31:52.737Z,16.70
2019-02-28T12:34:24.027Z,16.90
2019-02-28T12:36:55.130Z,16.90
2019-02-28T12:39:26.319Z,16.80
2019-02-28T12:41:59.523Z,16.70
2019-02-28T12:44:30.368Z,16.60
2019-02-28T12:47:03.352Z,16.80
2019-02-28T12:49:34.727Z,16.70
2019-02-28T12:52:05.911Z,16.60
2019-02-28T12:54:37.146Z,16.60
2019-02-28T12:57:08.347Z,16.60
2019-02-28T12:59:41.792Z,16.80
2019-02-28T13:02:12.752Z,16.80
2019-02-28T13:04:43.959Z,16.60
2019-02-28T13:07:15.141Z,16.70
2019-02-28T13:09:48.258Z,16.70
2019-02-28T13:12:19.129Z,16.70
2019-02-28T13:14:50.326Z,16.70
2019-02-28T13:17:21.506Z,16.70
2019-02-28T13:19:53.157Z,16.70
2019-02-28T13:22:25.591Z,16.90
2019-02-28T13:24:56.801Z,16.90
2019-02-28T13:27:27.991Z,16.90
2019-02-28T13:29:59.105Z,16.80
2019-02-28T13:32:33.768Z,16.70
2019-02-28T13:35:07.208Z,16.80
2019-02-28T13:37:37.511Z,16.70
2019-02-28T13:40:09.535Z,16.60
2019-02-28T13:42:42.317Z,16.60
2019-02-28T13:45:22.232Z,16.50
2019-02-28T13:47:48.175Z,16.50
2019-02-28T13:50:22.076Z,16.50
2019-02-28T13:52:54.211Z,16.60
2019-02-28T13:55:25.598Z,16.60
2019-02-28T13:57:56.835Z,16.50
2019-02-28T14:00:29.574Z,16.40
2019-02-28T14:03:09.143Z,16.20
2019-02-28T14:05:40.816Z,16.30
2019-02-28T14:08:11.297Z,16.20
2019-02-28T14:10:41.589Z,16.30
2019-02-28T14:13:12.890Z,16.40
2019-02-28T14:15:47.885Z,16.40
2019-02-28T14:18:17.314Z,16.50
2019-02-28T14:20:49.202Z,16.30
2019-02-28T14:23:21.526Z,16.30
2019-02-28T14:25:53.013Z,16.30
2019-02-28T14:28:24.347Z,16.40
2019-02-28T14:30:57.611Z,16.40
2019-02-28T14:33:28.488Z,16.50
2019-02-28T14:35:59.762Z,16.60
2019-02-28T14:38:32.792Z,16.60
2019-02-28T14:41:03.906Z,16.40
2019-02-28T14:43:35.136Z,16.20
2019-02-28T14:46:06.565Z,16.20
2019-02-28T14:48:39.900Z,16.10
2019-02-28T14:51:10.749Z,16.10
2019-02-28T14:53:42.020Z,16.30
2019-02-28T14:56:13.320Z,16.20
2019-02-28T14:58:44.764Z,16.10
2019-02-28T15:01:17.752Z,16.10
2019-02-28T15:03:48.922Z,15.90
2019-02-28T15:06:20.099Z,15.80
2019-02-28T15:08:51.961Z,15.70
2019-02-28T15:11:23.529Z,15.50
2019-02-28T15:13:54.754Z,15.40
2019-02-28T15:16:26.647Z,15.40
2019-02-28T15:18:59.265Z,15.10
2019-02-28T15:21:30.595Z,14.80
2019-02-28T15:24:01.812Z,14.50
2019-02-28T15:26:33.229Z,14.30
2019-02-28T15:29:04.443Z,14.00
2019-02-28T15:31:35.676Z,13.80
2019-02-28T15:34:06.916Z,13.70
2019-02-28T15:36:39.280Z,13.50
2019-02-28T15:39:10.525Z,13.40
2019-02-28T15:41:41.893Z,13.30
2019-02-28T15:44:13.110Z,13.10
2019-02-28T15:46:47.372Z,13.00
2019-02-28T15:49:17.612Z,12.90
2019-02-28T15:51:48.985Z,12.80
2019-02-28T15:54:21.715Z,12.70
2019-02-28T15:56:55.435Z,12.60
2019-02-28T15:59:25.989Z,12.50
2019-02-28T16:01:57.234Z,12.40
2019-02-28T16:04:28.673Z,12.30
2019-02-28T16:06:59.848Z,12.20
2019-02-28T16:09:37.989Z,12.20
2019-02-28T16:12:46.611Z,12.10
2019-02-28T16:15:39.377Z,12.10
2019-02-28T16:18:18.512Z,12.00
2019-02-28T16:20:53.534Z,11.90
2019-02-28T16:23:31.102Z,11.80
2019-02-28T16:26:05.325Z,11.70
2019-02-28T16:28:44.135Z,11.70
2019-02-28T16:31:21.371Z,11.60
2019-02-28T16:34:08.018Z,11.50
2019-02-28T16:36:32.105Z,11.40
2019-02-28T16:39:04.740Z,11.30
2019-02-28T16:41:37.649Z,11.20
2019-02-28T16:44:09.025Z,11.20
2019-02-28T16:46:40.278Z,11.20
2019-02-28T16:49:11.521Z,11.20
2019-02-28T16:51:42.750Z,11.10
2019-02-28T16:54:15.550Z,11.10
2019-02-28T16:56:46.813Z,11.00
2019-02-28T16:59:18.025Z,11.00
2019-02-28T17:01:51.321Z,10.90
2019-02-28T17:04:22.110Z,10.80
2019-02-28T17:06:55.498Z,10.60
2019-02-28T17:09:36.627Z,10.50
2019-02-28T17:12:18.265Z,10.40
2019-02-28T17:14:49.603Z,10.30
2019-02-28T17:17:46.949Z,10.20
2019-02-28T17:20:18.851Z,10.20
2019-02-28T17:22:50.092Z,10.10
2019-02-28T17:25:21.686Z,10.10
2019-02-28T17:28:15.268Z,10.00
2019-02-28T17:31:19.821Z,9.90
2019-02-28T17:33:51.791Z,9.70
2019-02-28T17:36:23.245Z,9.60
2019-02-28T17:38:54.778Z,9.50
2019-02-28T17:41:26.035Z,9.40
2019-02-28T17:44:41.026Z,9.40
2019-02-28T17:47:37.560Z,9.30
2019-02-28T17:51:00.331Z,9.10
2019-02-28T17:54:17.223Z,9.00
2019-02-28T17:57:06.838Z,8.90
2019-02-28T18:00:30.014Z,8.80
2019-02-28T18:03:53.396Z,8.70
2019-02-28T18:06:50.129Z,8.70
2019-02-28T18:09:34.328Z,8.60
2019-02-28T18:12:57.399Z,8.50
2019-02-28T18:15:50.790Z,8.30
2019-02-28T18:18:55.698Z,8.30
2019-02-28T18:21:54.771Z,8.10
2019-02-28T18:25:37.338Z,8.10
2019-02-28T18:28:49.088Z,8.00
2019-02-28T18:31:22.066Z,7.90
2019-02-28T18:34:05.810Z,7.90
2019-02-28T18:36:40.258Z,8.00
2019-02-28T18:39:12.317Z,7.90
2019-02-28T18:41:44.117Z,7.90
2019-02-28T18:44:15.486Z,7.90
2019-02-28T18:46:48.784Z,7.90
2019-02-28T18:49:20.524Z,7.90
2019-02-28T18:51:56.143Z,7.90
2019-02-28T18:54:30.169Z,7.80
2019-02-28T18:57:01.992Z,7.70
2019-02-28T18:59:33.701Z,7.70
2019-02-28T19:02:05.794Z,7.60
2019-02-28T19:04:37.647Z,7.50
2019-02-28T19:07:08.918Z,7.40
2019-02-28T19:09:40.389Z,7.40
2019-02-28T19:12:12.884Z,7.30
2019-02-28T19:14:44.286Z,7.30
2019-02-28T19:17:15.621Z,7.30
2019-02-28T19:19:46.849Z,7.30
2019-02-28T19:22:20.669Z,7.20
2019-02-28T19:24:52.401Z,7.20
2019-02-28T19:27:31.735Z,7.10
2019-02-28T19:30:02.982Z,7.10
2019-02-28T19:32:35.576Z,7.10
2019-02-28T19:35:06.879Z,7.10
2019-02-28T19:37:38.168Z,7.00
2019-02-28T19:40:10.185Z,7.00
2019-02-28T19:42:41.563Z,6.90
2019-02-28T19:45:13.896Z,6.80
2019-02-28T19:47:45.183Z,6.80
2019-02-28T19:50:16.307Z,6.80
2019-02-28T19:52:47.597Z,6.70
2019-02-28T19:55:18.886Z,6.80
2019-02-28T19:57:52.790Z,6.80
2019-02-28T20:00:24.047Z,6.90
2019-02-28T20:02:55.279Z,7.00
2019-02-28T20:05:26.602Z,7.20
2019-02-28T20:07:58.335Z,7.40
2019-02-28T20:10:29.785Z,7.60
2019-02-28T20:13:01.225Z,7.70
2019-02-28T20:15:34.341Z,7.90
2019-02-28T20:18:05.554Z,7.90
2019-02-28T20:20:37.245Z,8.00
2019-02-28T20:23:08.703Z,8.20
2019-02-28T20:25:39.895Z,8.30
2019-02-28T20:28:11.091Z,8.30
2019-02-28T20:30:42.417Z,8.20
2019-02-28T20:33:13.668Z,8.00
2019-02-28T20:35:44.985Z,7.90
2019-02-28T20:38:17.539Z,7.80
2019-02-28T20:40:49.145Z,7.60
2019-02-28T20:43:20.964Z,7.50
2019-02-28T20:45:52.730Z,7.30
2019-02-28T20:48:24.067Z,7.20
2019-02-28T20:50:55.935Z,7.10
2019-02-28T20:53:27.113Z,7.00
2019-02-28T20:55:58.312Z,6.90
2019-02-28T20:58:29.699Z,6.80
2019-02-28T21:01:01.256Z,6.80
2019-02-28T21:03:32.508Z,6.80
2019-02-28T21:06:03.886Z,6.70
2019-02-28T21:08:35.266Z,6.70
2019-02-28T21:11:07.426Z,6.70
2019-02-28T21:13:38.788Z,6.70
2019-02-28T21:16:10.536Z,6.70
2019-02-28T21:18:42.033Z,6.70
2019-02-28T21:21:13.391Z,6.70
2019-02-28T21:23:44.839Z,6.60
2019-02-28T21:26:16.055Z,6.60
2019-02-28T21:28:47.284Z,6.60
2019-02-28T21:31:18.497Z,6.60
2019-02-28T21:33:49.801Z,6.50
2019-02-28T21:36:21.087Z,6.50
2019-02-28T21:38:52.370Z,6.50
2019-02-28T21:41:23.545Z,6.50
2019-02-28T21:43:54.878Z,6.50
2019-02-28T21:46:26.096Z,6.40
2019-02-28T21:48:57.335Z,6.40
2019-02-28T21:51:28.584Z,6.40
2019-02-28T21:53:59.784Z,6.40
2019-02-28T21:56:31.033Z,6.30
2019-02-28T21:59:02.236Z,6.30
2019-02-28T22:01:33.448Z,6.20
2019-02-28T22:04:04.641Z,6.30
2019-02-28T22:06:35.909Z,6.30
2019-02-28T22:09:08.359Z,6.30
2019-02-28T22:11:40.652Z,6.30
2019-02-28T22:14:12.042Z,6.30
2019-02-28T22:16:43.945Z,6.30
2019-02-28T22:19:15.361Z,6.20
2019-02-28T22:21:46.509Z,6.20
2019-02-28T22:24:18.242Z,6.20
2019-02-28T22:26:49.459Z,6.10
2019-02-28T22:29:20.651Z,6.20
2019-02-28T22:32:29.046Z,6.10
2019-02-28T22:35:08.935Z,6.20
2019-02-28T22:37:40.305Z,6.20
2019-02-28T22:40:11.634Z,6.10
2019-02-28T22:42:43.384Z,6.20
2019-02-28T22:45:15.725Z,6.10
2019-02-28T22:47:47.363Z,6.10
2019-02-28T22:50:18.948Z,6.10
2019-02-28T22:52:50.617Z,6.10
2019-02-28T22:55:22.223Z,6.10
2019-02-28T22:57:53.507Z,6.10
2019-02-28T23:00:43.581Z,6.10
2019-02-28T23:03:15.077Z,6.10
